Time;durP1;ratioP1;P1;durP2;ratioP2;P2;SDS_P1;SDS_P2;PMS_P1;PMS_P2;Temp;Humidity;BMP_temperature;BMP_pressure;BME280_temperature;BME280_humidity;BME280_pressure;Samples;Min_cycle;Max_cycle;Signal;HPM_P1;HPM_P2
2024/03/04 00:01:33;;;;;;;57.77;51.50;;;8.10;99.90;;;;;;5163088;27;20450;-77
2024/03/04 00:04:02;;;;;;;59.00;52.77;;;8.10;99.90;;;;;;5182202;27;20433;-77
2024/03/04 00:06:30;;;;;;;56.07;50.07;;;8.10;99.90;;;;;;5163945;27;20465;-78
2024/03/04 00:08:58;;;;;;;58.93;53.00;;;8.10;99.90;;;;;;5162401;27;20516;-79
2024/03/04 00:11:28;;;;;;;60.43;54.03;;;8.00;99.90;;;;;;5163847;27;20964;-78
2024/03/04 00:13:57;;;;;;;57.83;51.80;;;8.00;99.90;;;;;;5165199;27;20451;-78
2024/03/04 00:16:26;;;;;;;57.70;51.90;;;8.00;99.90;;;;;;5162551;27;20454;-77
2024/03/04 00:18:55;;;;;;;60.70;54.30;;;8.00;99.90;;;;;;5179617;27;20445;-76
2024/03/04 00:21:23;;;;;;;59.43;53.03;;;8.00;99.90;;;;;;5163236;27;20479;-78
2024/03/04 00:23:52;;;;;;;61.30;54.73;;;8.00;99.90;;;;;;5161421;27;20440;-80
2024/03/04 00:26:21;;;;;;;61.73;55.03;;;8.00;99.90;;;;;;5164027;27;20459;-77
2024/03/04 00:28:51;;;;;;;61.03;54.50;;;7.90;99.90;;;;;;5163895;27;20563;-77
2024/03/04 00:31:19;;;;;;;59.40;53.30;;;7.90;99.90;;;;;;5164847;27;20451;-78
2024/03/04 00:33:49;;;;;;;57.97;51.87;;;7.90;99.90;;;;;;5165911;27;20443;-79
2024/03/04 00:36:21;;;;;;;59.57;53.37;;;7.90;99.90;;;;;;5166169;27;20946;-79
2024/03/04 00:38:51;;;;;;;61.00;54.30;;;7.90;99.90;;;;;;5168252;27;20495;-79
2024/03/04 00:41:23;;;;;;;62.13;55.23;;;7.80;99.90;;;;;;5165583;27;20902;-77
2024/03/04 00:43:54;;;;;;;59.90;53.73;;;7.80;99.90;;;;;;5165550;27;20436;-78
2024/03/04 00:46:23;;;;;;;63.60;56.90;;;7.80;99.90;;;;;;5184872;27;20409;-78
2024/03/04 00:48:51;;;;;;;62.07;55.57;;;7.80;99.90;;;;;;5165295;27;20836;-79
2024/03/04 00:51:20;;;;;;;61.70;55.10;;;7.80;99.90;;;;;;5164923;27;20452;-78
2024/03/04 00:53:48;;;;;;;59.23;53.03;;;7.80;99.90;;;;;;5165340;27;20440;-78
2024/03/04 00:56:17;;;;;;;59.07;52.97;;;7.70;99.90;;;;;;5165867;27;20445;-78
2024/03/04 00:58:45;;;;;;;61.00;54.60;;;7.70;99.90;;;;;;5164785;27;20465;-79
2024/03/04 01:01:15;;;;;;;58.70;52.60;;;7.70;99.90;;;;;;5166421;27;20957;-78
2024/03/04 01:03:44;;;;;;;61.47;54.20;;;7.70;99.90;;;;;;5160517;27;20536;-79
2024/03/04 01:06:13;;;;;;;56.70;50.70;;;7.60;99.90;;;;;;5159985;27;20508;-77
2024/03/04 01:08:42;;;;;;;59.53;52.90;;;7.60;99.90;;;;;;5160882;27;20483;-77
2024/03/04 01:11:11;;;;;;;57.60;51.50;;;7.60;99.90;;;;;;5161596;27;20471;-78
2024/03/04 01:13:39;;;;;;;59.17;53.00;;;7.50;99.90;;;;;;5163014;27;20447;-79
2024/03/04 01:16:08;;;;;;;56.40;50.20;;;7.50;99.90;;;;;;5166569;27;20441;-79
2024/03/04 01:18:38;;;;;;;57.33;51.53;;;7.50;99.90;;;;;;5162909;27;20500;-79
2024/03/04 01:21:07;;;;;;;55.27;49.50;;;7.40;99.90;;;;;;5163361;27;20444;-78
2024/03/04 01:23:37;;;;;;;54.03;48.40;;;7.40;99.90;;;;;;5163416;27;20476;-78
2024/03/04 01:26:06;;;;;;;56.43;49.77;;;7.40;99.90;;;;;;5184612;27;20861;-77
2024/03/04 01:28:34;;;;;;;57.67;51.57;;;7.30;99.90;;;;;;5184844;27;20819;-78
2024/03/04 01:31:03;;;;;;;56.13;50.13;;;7.30;99.90;;;;;;5165795;27;20517;-78
2024/03/04 01:33:32;;;;;;;56.03;50.07;;;7.30;99.90;;;;;;5165605;27;20439;-78
2024/03/04 01:36:04;;;;;;;55.87;49.90;;;7.30;99.90;;;;;;5165815;27;20488;-78
2024/03/04 01:38:32;;;;;;;59.07;52.77;;;7.20;99.90;;;;;;5166755;27;20531;-77
2024/03/04 01:41:01;;;;;;;58.73;52.13;;;7.20;99.90;;;;;;5165139;27;20450;-77
2024/03/04 01:43:30;;;;;;;60.03;50.60;;;7.10;99.90;;;;;;5165437;27;20545;-78
2024/03/04 01:45:58;;;;;;;59.10;52.70;;;7.10;99.90;;;;;;5166148;27;20467;-78
2024/03/04 01:48:27;;;;;;;54.93;48.83;;;7.10;99.90;;;;;;5165110;27;20483;-77
2024/03/04 01:50:56;;;;;;;58.43;52.03;;;7.10;99.90;;;;;;5167604;27;20468;-78
2024/03/04 01:53:27;;;;;;;61.13;54.60;;;7.00;99.90;;;;;;5167790;27;20458;-79
2024/03/04 01:56:02;;;;;;;58.17;49.53;;;7.00;99.90;;;;;;5187886;27;20445;-78
2024/03/04 01:58:31;;;;;;;58.20;51.90;;;7.00;99.90;;;;;;5167904;27;20825;-78
2024/03/04 02:01:03;;;;;;;55.77;48.30;;;7.00;99.90;;;;;;5168587;27;20547;-78
2024/03/04 02:03:33;;;;;;;54.83;48.77;;;6.90;99.90;;;;;;5166785;27;20463;-76
2024/03/04 02:06:03;;;;;;;58.90;50.97;;;6.90;99.90;;;;;;5164584;27;20452;-77
2024/03/04 02:08:33;;;;;;;56.63;49.73;;;6.90;99.90;;;;;;5165735;27;20519;-79
2024/03/04 02:11:03;;;;;;;59.33;48.50;;;6.80;99.90;;;;;;5164281;27;20454;-77
2024/03/04 02:13:32;;;;;;;55.40;48.03;;;6.80;99.90;;;;;;5165210;27;20447;-78
2024/03/04 02:16:01;;;;;;;62.47;53.83;;;6.80;99.90;;;;;;5166557;27;20860;-78
2024/03/04 02:18:34;;;;;;;57.27;49.97;;;6.70;99.90;;;;;;5165147;27;20468;-78
2024/03/04 02:21:04;;;;;;;62.10;52.63;;;6.70;99.90;;;;;;5164794;27;20432;-77
2024/03/04 02:23:34;;;;;;;59.93;51.03;;;6.70;99.90;;;;;;5165338;27;20520;-78
2024/03/04 02:26:03;;;;;;;64.83;52.97;;;6.70;99.90;;;;;;5164210;27;20448;-78
2024/03/04 02:28:32;;;;;;;65.47;50.50;;;6.60;99.90;;;;;;5183487;27;20475;-78
2024/03/04 02:31:03;;;;;;;64.77;53.03;;;6.60;99.90;;;;;;5164861;27;20440;-77
2024/03/04 02:33:33;;;;;;;64.73;55.07;;;6.60;99.90;;;;;;5165021;27;20446;-78
2024/03/04 02:36:01;;;;;;;59.60;51.23;;;6.60;99.90;;;;;;5182873;27;20439;-78
2024/03/04 02:38:32;;;;;;;57.07;48.40;;;6.60;99.90;;;;;;5165160;27;20464;-78
2024/03/04 02:41:04;;;;;;;61.93;50.90;;;6.50;99.90;;;;;;5165233;27;20481;-77
2024/03/04 02:43:35;;;;;;;58.47;49.43;;;6.50;99.90;;;;;;5164615;27;20493;-77
2024/03/04 02:46:04;;;;;;;62.70;53.60;;;6.50;99.90;;;;;;5165162;27;20462;-78
2024/03/04 02:48:32;;;;;;;59.90;49.90;;;6.40;99.90;;;;;;5164343;27;20469;-77
2024/03/04 02:51:01;;;;;;;59.27;47.63;;;6.40;99.90;;;;;;5165331;27;20458;-78
2024/03/04 02:53:30;;;;;;;61.13;49.63;;;6.40;99.90;;;;;;5165808;27;20450;-79
2024/03/04 02:55:58;;;;;;;62.00;52.60;;;6.40;99.90;;;;;;5167412;27;20447;-77
2024/03/04 02:58:28;;;;;;;62.20;50.33;;;6.30;99.90;;;;;;5164957;27;20468;-76
2024/03/04 03:00:57;;;;;;;61.87;51.50;;;6.30;99.90;;;;;;5165146;27;20781;-78
2024/03/04 03:03:28;;;;;;;62.00;54.57;;;6.30;99.90;;;;;;5164214;27;20478;-78
2024/03/04 03:05:57;;;;;;;61.73;49.73;;;6.30;99.90;;;;;;5164649;27;20456;-77
2024/03/04 03:08:25;;;;;;;65.10;53.40;;;6.30;99.90;;;;;;5163960;27;20847;-77
2024/03/04 03:10:54;;;;;;;64.87;52.23;;;6.20;99.90;;;;;;5163618;27;20447;-78
2024/03/04 03:13:23;;;;;;;67.27;52.40;;;6.20;99.90;;;;;;5163641;27;20438;-78
2024/03/04 03:15:53;;;;;;;66.20;50.33;;;6.20;99.90;;;;;;5183168;27;20438;-78
2024/03/04 03:18:21;;;;;;;61.87;51.47;;;6.20;99.90;;;;;;5164053;27;21040;-78
2024/03/04 03:20:52;;;;;;;69.50;53.80;;;6.10;99.90;;;;;;5164094;27;20450;-78
2024/03/04 03:23:21;;;;;;;72.10;58.77;;;6.20;99.90;;;;;;5163551;27;20445;-78
2024/03/04 03:25:50;;;;;;;74.73;61.23;;;6.20;99.90;;;;;;5163511;27;20504;-78
2024/03/04 03:28:20;;;;;;;76.47;58.30;;;6.20;99.90;;;;;;5164486;27;20479;-78
2024/03/04 03:30:48;;;;;;;84.30;57.90;;;6.20;99.90;;;;;;5163661;27;20447;-77
2024/03/04 03:33:18;;;;;;;88.67;55.80;;;6.20;99.90;;;;;;5182407;27;20439;-78
2024/03/04 03:35:47;;;;;;;90.40;54.67;;;6.20;99.90;;;;;;5165735;27;20497;-78
2024/03/04 03:38:15;;;;;;;77.50;59.00;;;6.20;99.90;;;;;;5187588;27;20462;-78
2024/03/04 03:40:45;;;;;;;87.03;57.57;;;6.20;99.90;;;;;;5169447;27;20527;-78
2024/03/04 03:43:13;;;;;;;78.53;56.53;;;6.20;99.90;;;;;;5167276;27;20494;-77
2024/03/04 03:45:42;;;;;;;80.70;56.07;;;6.20;99.90;;;;;;5167950;27;20452;-78
2024/03/04 03:48:11;;;;;;;92.63;57.20;;;6.30;99.90;;;;;;5166635;27;20470;-78
2024/03/04 03:50:41;;;;;;;77.50;53.00;;;6.20;99.90;;;;;;5167578;27;20438;-76
2024/03/04 03:53:09;;;;;;;202.73;66.77;;;6.20;99.90;;;;;;5187519;27;20431;-78
2024/03/04 03:55:38;;;;;;;86.10;57.80;;;6.20;99.90;;;;;;5163405;27;20454;-77
2024/03/04 03:58:06;;;;;;;78.13;57.43;;;6.30;99.90;;;;;;5178464;27;20454;-77
2024/03/04 04:00:36;;;;;;;67.50;52.90;;;6.30;99.90;;;;;;5159403;27;20449;-77
2024/03/04 04:03:06;;;;;;;94.37;57.07;;;6.30;99.90;;;;;;5161116;27;20462;-76
2024/03/04 04:05:34;;;;;;;67.77;59.50;;;6.30;99.90;;;;;;5165340;27;20449;-78
2024/03/04 04:08:05;;;;;;;97.53;54.93;;;6.30;99.90;;;;;;5164572;27;20462;-78
2024/03/04 04:10:34;;;;;;;69.40;55.77;;;6.40;99.90;;;;;;5165219;27;20475;-78
2024/03/04 04:13:02;;;;;;;70.60;53.57;;;6.30;99.90;;;;;;5164340;27;20451;-78
2024/03/04 04:15:31;;;;;;;74.67;55.50;;;6.40;99.90;;;;;;5183233;27;20447;-78
2024/03/04 04:17:59;;;;;;;64.83;51.80;;;6.40;99.90;;;;;;5164136;27;20464;-77
2024/03/04 04:20:28;;;;;;;67.93;55.10;;;6.40;99.90;;;;;;5163737;27;20458;-78
2024/03/04 04:22:56;;;;;;;95.60;57.63;;;6.40;99.90;;;;;;5163909;27;20442;-77
2024/03/04 04:25:27;;;;;;;74.73;59.27;;;6.40;99.90;;;;;;5163594;27;20457;-77
2024/03/04 04:27:56;;;;;;;77.87;59.50;;;6.50;99.90;;;;;;5163086;27;20483;-78
2024/03/04 04:30:24;;;;;;;88.33;57.63;;;6.50;99.90;;;;;;5163325;27;20467;-78
2024/03/04 04:32:53;;;;;;;66.03;53.40;;;6.50;99.90;;;;;;5181673;27;20446;-77
2024/03/04 04:35:21;;;;;;;99.73;60.57;;;6.50;99.90;;;;;;5163338;27;20480;-78
2024/03/04 04:37:52;;;;;;;65.40;54.10;;;6.50;99.90;;;;;;5162911;27;20923;-78
2024/03/04 04:40:21;;;;;;;60.17;51.77;;;6.50;99.90;;;;;;5181727;27;20427;-77
2024/03/04 04:42:54;;;;;;;74.10;52.73;;;6.50;99.90;;;;;;5181633;27;20527;-78
2024/03/04 04:45:26;;;;;;;68.33;51.23;;;6.50;99.90;;;;;;5162985;27;20467;-78
2024/03/04 04:47:54;;;;;;;74.33;56.73;;;6.50;99.90;;;;;;5162571;27;20515;-78
2024/03/04 04:50:23;;;;;;;69.60;53.13;;;6.50;99.90;;;;;;5162526;27;20495;-78
2024/03/04 04:52:51;;;;;;;65.97;57.53;;;6.50;99.90;;;;;;5162896;27;20452;-78
2024/03/04 04:55:21;;;;;;;66.57;55.17;;;6.50;99.90;;;;;;5162399;27;20451;-77
2024/03/04 04:57:51;;;;;;;66.53;55.73;;;6.50;99.90;;;;;;5162415;27;20488;-78
2024/03/04 05:00:19;;;;;;;65.00;55.40;;;6.60;99.90;;;;;;5169862;27;20440;-79
2024/03/04 05:02:48;;;;;;;68.20;58.93;;;6.60;99.90;;;;;;5167277;27;20439;-78
2024/03/04 05:05:24;;;;;;;73.77;55.70;;;6.60;99.90;;;;;;5167950;27;20444;-77
2024/03/04 05:07:53;;;;;;;74.87;58.70;;;6.60;99.90;;;;;;5164527;27;20464;-77
2024/03/04 05:10:22;;;;;;;63.30;55.63;;;6.60;99.90;;;;;;5183108;27;20458;-77
2024/03/04 05:12:53;;;;;;;66.00;55.33;;;6.60;99.90;;;;;;5183620;27;20439;-76
2024/03/04 05:15:21;;;;;;;67.67;54.97;;;6.60;99.90;;;;;;5183658;27;20432;-77
2024/03/04 05:17:50;;;;;;;73.20;57.37;;;6.60;99.90;;;;;;5164809;27;20463;-77
2024/03/04 05:20:21;;;;;;;70.63;57.60;;;6.60;99.90;;;;;;5164530;27;20475;-77
2024/03/04 05:22:50;;;;;;;87.87;60.67;;;6.60;99.90;;;;;;5165427;27;20852;-77
2024/03/04 05:25:18;;;;;;;80.40;57.07;;;6.60;99.90;;;;;;5164415;27;20454;-76
2024/03/04 05:27:47;;;;;;;71.13;57.80;;;6.70;99.90;;;;;;5164250;27;20477;-76
2024/03/04 05:30:17;;;;;;;88.43;64.27;;;6.70;99.90;;;;;;5183204;27;20514;-77
2024/03/04 05:32:48;;;;;;;94.40;63.17;;;6.70;99.90;;;;;;5164384;27;20446;-77
2024/03/04 05:35:17;;;;;;;81.33;64.20;;;6.70;99.90;;;;;;5164993;27;20845;-77
2024/03/04 05:37:45;;;;;;;77.03;62.63;;;6.70;99.90;;;;;;5165425;27;20467;-77
2024/03/04 05:40:14;;;;;;;88.67;65.47;;;6.80;99.90;;;;;;5183634;27;20436;-77
2024/03/04 05:42:44;;;;;;;94.83;65.80;;;6.80;99.90;;;;;;5166738;27;20446;-79
2024/03/04 05:45:12;;;;;;;94.10;70.27;;;6.80;99.90;;;;;;5171134;27;20451;-78
2024/03/04 05:47:45;;;;;;;96.60;65.70;;;6.80;99.90;;;;;;5165599;27;20876;-76
2024/03/04 05:50:15;;;;;;;127.30;76.17;;;6.80;99.90;;;;;;5164217;27;20815;-76
2024/03/04 05:52:45;;;;;;;112.73;73.30;;;6.80;99.90;;;;;;5164615;27;20440;-77
2024/03/04 05:55:14;;;;;;;164.37;83.27;;;6.90;99.90;;;;;;5183193;27;20424;-77
2024/03/04 05:57:43;;;;;;;123.13;75.47;;;6.90;99.90;;;;;;5164090;27;20467;-76
2024/03/04 06:00:14;;;;;;;138.07;77.53;;;6.90;99.90;;;;;;5164365;27;20453;-77
2024/03/04 06:02:45;;;;;;;122.77;76.73;;;6.90;99.90;;;;;;5164208;27;20538;-76
2024/03/04 06:05:14;;;;;;;134.70;82.10;;;6.90;99.90;;;;;;5164160;27;20854;-77
2024/03/04 06:07:43;;;;;;;128.87;76.73;;;6.90;99.90;;;;;;5164109;27;20482;-77
2024/03/04 06:10:13;;;;;;;106.43;76.17;;;6.90;99.90;;;;;;5183286;27;20470;-77
2024/03/04 06:12:41;;;;;;;116.70;75.70;;;6.90;99.90;;;;;;5160971;27;20455;-76
2024/03/04 06:15:09;;;;;;;122.77;76.27;;;6.90;99.90;;;;;;5162165;27;20455;-78
2024/03/04 06:17:39;;;;;;;138.23;79.93;;;6.90;99.90;;;;;;5164279;27;20460;-78
2024/03/04 06:20:10;;;;;;;126.03;84.87;;;6.80;99.90;;;;;;5166875;27;20464;-77
2024/03/04 06:22:41;;;;;;;129.60;81.80;;;6.90;99.90;;;;;;5185906;27;20423;-78
2024/03/04 06:25:11;;;;;;;127.23;82.67;;;6.90;99.90;;;;;;5164711;27;20440;-78
2024/03/04 06:27:40;;;;;;;139.80;85.00;;;6.90;99.90;;;;;;5163503;27;21046;-77
2024/03/04 06:30:12;;;;;;;129.57;81.43;;;6.90;99.90;;;;;;5164054;27;20467;-77
2024/03/04 06:32:41;;;;;;;125.50;79.13;;;6.90;99.90;;;;;;5164191;27;20439;-77
2024/03/04 06:35:11;;;;;;;155.67;82.77;;;6.90;99.90;;;;;;5163324;27;20451;-77
2024/03/04 06:37:40;;;;;;;118.80;80.93;;;6.90;99.90;;;;;;5164349;27;20536;-78
2024/03/04 06:40:10;;;;;;;124.87;76.70;;;6.90;99.90;;;;;;5182550;27;20937;-77
2024/03/04 06:42:38;;;;;;;132.43;80.77;;;6.90;99.90;;;;;;5182787;27;20424;-77
2024/03/04 06:45:08;;;;;;;115.30;72.53;;;6.90;99.90;;;;;;5163125;27;20496;-78
2024/03/04 06:47:37;;;;;;;140.57;84.53;;;6.90;99.90;;;;;;5163938;27;20463;-78
2024/03/04 06:50:07;;;;;;;143.13;80.50;;;6.90;99.90;;;;;;5169819;27;20467;-78
2024/03/04 06:52:37;;;;;;;153.60;85.13;;;6.90;99.90;;;;;;5188869;27;20432;-78
2024/03/04 06:55:06;;;;;;;144.33;83.87;;;6.90;99.90;;;;;;5169942;27;20474;-78
2024/03/04 06:57:34;;;;;;;122.80;81.23;;;6.90;99.90;;;;;;5169582;27;20443;-78
2024/03/04 07:00:04;;;;;;;142.67;88.80;;;6.90;99.90;;;;;;5169861;27;20498;-78
2024/03/04 07:02:33;;;;;;;133.47;86.63;;;6.90;99.90;;;;;;5169232;27;20447;-78
2024/03/04 07:05:03;;;;;;;129.17;84.87;;;6.90;99.90;;;;;;5169454;27;20465;-77
2024/03/04 07:07:31;;;;;;;129.40;84.93;;;7.00;99.90;;;;;;5168633;27;20937;-78
2024/03/04 07:10:02;;;;;;;125.33;88.57;;;7.00;99.90;;;;;;5168861;27;20447;-78
2024/03/04 07:12:31;;;;;;;122.33;86.10;;;7.00;99.90;;;;;;5168525;27;21153;-78
2024/03/04 07:15:00;;;;;;;137.93;91.20;;;7.00;99.90;;;;;;5168337;27;20462;-77
2024/03/04 07:17:28;;;;;;;136.80;92.63;;;7.00;99.90;;;;;;5186517;27;20458;-78
2024/03/04 07:19:57;;;;;;;137.20;92.43;;;7.00;99.90;;;;;;5167975;27;20469;-78
2024/03/04 07:22:26;;;;;;;139.60;92.27;;;7.10;99.90;;;;;;5166703;27;20492;-78
2024/03/04 07:24:55;;;;;;;143.27;97.43;;;7.10;99.90;;;;;;5186382;27;20435;-77
2024/03/04 07:27:25;;;;;;;176.57;101.77;;;7.20;99.90;;;;;;5186058;27;20484;-79
2024/03/04 07:29:55;;;;;;;159.67;103.47;;;7.20;99.90;;;;;;5167324;27;20448;-78
2024/03/04 07:32:30;;;;;;;165.87;102.83;;;7.20;99.90;;;;;;5167438;27;20459;-77
2024/03/04 07:34:59;;;;;;;162.47;103.27;;;7.20;99.90;;;;;;5166714;27;20444;-78
2024/03/04 07:37:27;;;;;;;151.17;104.37;;;7.30;99.90;;;;;;5166945;27;20925;-78
2024/03/04 07:39:57;;;;;;;157.00;101.50;;;7.30;99.90;;;;;;5167100;27;20452;-78
2024/03/04 07:42:27;;;;;;;153.90;102.73;;;7.40;99.90;;;;;;5167149;27;20518;-79
2024/03/04 07:44:58;;;;;;;147.87;101.07;;;7.40;99.90;;;;;;5186388;27;20413;-78
2024/03/04 07:47:26;;;;;;;147.80;99.77;;;7.40;99.90;;;;;;5165553;27;20538;-78
2024/03/04 07:49:55;;;;;;;144.73;100.17;;;7.50;99.90;;;;;;5165367;27;20486;-78
2024/03/04 07:52:23;;;;;;;141.60;99.23;;;7.50;99.90;;;;;;5166080;27;20465;-78
2024/03/04 07:54:53;;;;;;;145.70;98.77;;;7.60;99.90;;;;;;5166248;27;20452;-78
2024/03/04 07:57:21;;;;;;;140.13;99.53;;;7.60;99.90;;;;;;5165758;27;20488;-78
2024/03/04 07:59:54;;;;;;;137.73;100.83;;;7.70;99.90;;;;;;5165021;27;20443;-78
2024/03/04 08:02:22;;;;;;;133.13;95.77;;;7.70;99.90;;;;;;5162540;27;20448;-78
2024/03/04 08:04:51;;;;;;;136.10;95.33;;;7.70;99.90;;;;;;5162135;27;20477;-77
2024/03/04 08:07:22;;;;;;;142.03;99.20;;;7.80;99.90;;;;;;5163507;27;20436;-77
2024/03/04 08:09:50;;;;;;;127.63;97.57;;;7.80;99.90;;;;;;5165312;27;20452;-78
2024/03/04 08:12:19;;;;;;;143.10;101.67;;;7.80;99.90;;;;;;5164785;27;20845;-78
2024/03/04 08:14:48;;;;;;;134.07;93.37;;;7.90;99.90;;;;;;5184510;27;20834;-78
2024/03/04 08:17:18;;;;;;;130.13;94.97;;;7.90;99.90;;;;;;5184163;27;20489;-77
2024/03/04 08:19:52;;;;;;;129.87;95.77;;;8.00;99.90;;;;;;5184191;27;20423;-78
2024/03/04 08:22:20;;;;;;;138.57;101.27;;;8.00;99.90;;;;;;5183492;27;20428;-78
2024/03/04 08:24:48;;;;;;;126.80;95.37;;;8.00;99.90;;;;;;5183806;27;20429;-78
2024/03/04 08:27:18;;;;;;;122.73;93.43;;;8.10;99.90;;;;;;5164111;27;20449;-79
2024/03/04 08:29:46;;;;;;;130.17;93.30;;;8.10;99.90;;;;;;5164332;27;21012;-78
2024/03/04 08:32:15;;;;;;;124.97;93.03;;;8.10;99.90;;;;;;5164191;27;20472;-77
2024/03/04 08:34:49;;;;;;;122.10;95.53;;;8.20;99.90;;;;;;5182414;27;20439;-77
2024/03/04 08:37:18;;;;;;;116.20;90.93;;;8.20;99.90;;;;;;5163594;27;20440;-77
2024/03/04 08:39:47;;;;;;;116.00;88.47;;;8.20;99.90;;;;;;5163402;27;20467;-77
2024/03/04 08:42:15;;;;;;;117.00;90.27;;;8.30;99.90;;;;;;5163299;27;20440;-77
2024/03/04 08:44:44;;;;;;;120.53;89.40;;;8.30;99.90;;;;;;5163464;27;20444;-77
2024/03/04 08:47:13;;;;;;;115.20;87.80;;;8.30;99.90;;;;;;5163023;27;20448;-77
2024/03/04 08:49:42;;;;;;;123.70;94.93;;;8.30;99.90;;;;;;5182860;27;20459;-77
2024/03/04 08:52:12;;;;;;;124.93;90.37;;;8.40;99.90;;;;;;5162979;27;20467;-78
2024/03/04 08:54:40;;;;;;;129.47;93.37;;;8.40;99.90;;;;;;5163913;27;20445;-78
2024/03/04 08:57:09;;;;;;;121.27;87.73;;;8.50;99.90;;;;;;5163503;27;20447;-78
2024/03/04 08:59:38;;;;;;;116.53;88.40;;;8.50;99.90;;;;;;5163045;27;20476;-78
2024/03/04 09:02:06;;;;;;;122.40;90.80;;;8.50;99.90;;;;;;5163515;27;20444;-77
2024/03/04 09:04:35;;;;;;;120.23;90.97;;;8.50;99.90;;;;;;5162637;27;20531;-78
2024/03/04 09:07:04;;;;;;;120.57;92.67;;;8.60;99.90;;;;;;5162818;27;20445;-78
2024/03/04 09:09:35;;;;;;;116.93;91.50;;;8.60;99.90;;;;;;5162943;27;20467;-78
2024/03/04 09:12:04;;;;;;;112.83;93.07;;;8.70;99.90;;;;;;5162416;27;20554;-78
2024/03/04 09:14:35;;;;;;;119.03;90.90;;;8.70;99.90;;;;;;5162396;27;20440;-77
2024/03/04 09:17:04;;;;;;;114.00;87.77;;;8.70;99.90;;;;;;5163267;27;20468;-78
2024/03/04 09:19:32;;;;;;;113.67;88.97;;;8.80;99.90;;;;;;5162223;27;20464;-78
2024/03/04 09:22:03;;;;;;;113.03;89.20;;;8.80;99.90;;;;;;5162606;27;20444;-78
2024/03/04 09:24:34;;;;;;;109.30;88.47;;;8.90;99.90;;;;;;5162108;27;20447;-77
2024/03/04 09:27:03;;;;;;;113.67;92.03;;;8.90;99.90;;;;;;5161672;27;20819;-78
2024/03/04 09:29:31;;;;;;;114.27;89.23;;;9.00;99.90;;;;;;5162422;27;20449;-78
2024/03/04 09:32:00;;;;;;;113.57;89.97;;;9.00;99.90;;;;;;5161674;27;20465;-78
2024/03/04 09:34:29;;;;;;;109.70;88.20;;;9.00;99.90;;;;;;5161536;27;20463;-77
2024/03/04 09:37:00;;;;;;;106.40;86.20;;;9.00;99.90;;;;;;5162352;27;20433;-77
2024/03/04 09:39:29;;;;;;;108.57;86.00;;;9.10;99.90;;;;;;5159246;27;20902;-77
2024/03/04 09:42:00;;;;;;;106.03;87.60;;;9.10;99.90;;;;;;5158533;27;20452;-77
2024/03/04 09:44:31;;;;;;;105.70;87.50;;;9.20;99.90;;;;;;5159151;27;20929;-78
2024/03/04 09:46:59;;;;;;;97.63;83.87;;;9.20;99.90;;;;;;5165147;27;20906;-78
2024/03/04 09:49:30;;;;;;;104.33;89.20;;;9.30;99.90;;;;;;5166674;27;20481;-78
2024/03/04 09:52:00;;;;;;;96.60;82.07;;;9.30;99.90;;;;;;5183154;27;20459;-80
2024/03/04 09:54:32;;;;;;;99.43;85.87;;;9.40;99.90;;;;;;5163203;27;20969;-77
2024/03/04 09:57:03;;;;;;;105.13;87.00;;;9.40;99.90;;;;;;5183747;27;20413;-78
2024/03/04 09:59:33;;;;;;;104.33;85.53;;;9.50;99.90;;;;;;5166835;27;20455;-79
2024/03/04 10:02:05;;;;;;;103.83;87.63;;;9.50;99.90;;;;;;5164785;27;20421;-78
2024/03/04 10:04:34;;;;;;;96.57;84.83;;;9.60;99.90;;;;;;5167885;27;20429;-78
2024/03/04 10:07:04;;;;;;;95.00;84.47;;;9.60;99.90;;;;;;5168683;27;20440;-78
2024/03/04 10:09:34;;;;;;;94.37;83.53;;;9.60;99.90;;;;;;5187696;27;20511;-78
2024/03/04 10:12:07;;;;;;;91.33;79.17;;;9.70;99.90;;;;;;5168745;27;20460;-78
2024/03/04 10:15:06;;;;;;;88.27;76.33;;;9.70;99.90;;;;;;5168530;27;20497;-78
2024/03/04 10:17:35;;;;;;;88.13;77.57;;;9.80;99.90;;;;;;5187245;27;20515;-78
2024/03/04 10:20:06;;;;;;;89.37;77.00;;;9.80;99.90;;;;;;5168483;27;21002;-78
2024/03/04 10:22:36;;;;;;;91.63;81.27;;;9.90;99.90;;;;;;5167408;27;20447;-78
2024/03/04 10:25:06;;;;;;;89.57;76.60;;;9.90;99.90;;;;;;5168312;27;20889;-78
2024/03/04 10:27:37;;;;;;;95.20;80.10;;;9.90;99.90;;;;;;5167801;27;20456;-77
2024/03/04 10:30:10;;;;;;;87.17;76.17;;;10.00;99.90;;;;;;5167804;27;20618;-78
2024/03/04 10:32:39;;;;;;;87.70;76.87;;;10.00;99.90;;;;;;5186319;27;20467;-80
2024/03/04 10:35:08;;;;;;;88.80;78.90;;;10.00;99.90;;;;;;5168361;27;20476;-80
2024/03/04 10:37:36;;;;;;;85.43;76.10;;;10.00;99.90;;;;;;5168341;27;20478;-77
2024/03/04 10:40:09;;;;;;;91.13;79.40;;;10.00;99.90;;;;;;5187469;27;20437;-79
2024/03/04 10:42:40;;;;;;;89.97;80.30;;;10.10;99.90;;;;;;5168792;27;20448;-79
2024/03/04 10:45:12;;;;;;;90.63;74.50;;;10.10;99.90;;;;;;5168565;27;20432;-79
2024/03/04 10:47:42;;;;;;;84.33;74.47;;;10.20;99.90;;;;;;5187321;27;20460;-78
2024/03/04 10:50:12;;;;;;;86.80;76.20;;;10.20;99.90;;;;;;5167933;27;20448;-78
2024/03/04 10:52:41;;;;;;;80.90;72.43;;;10.20;99.90;;;;;;5168051;27;20500;-79
2024/03/04 10:55:09;;;;;;;84.10;74.57;;;10.30;99.90;;;;;;5168206;27;20487;-79
2024/03/04 10:57:44;;;;;;;84.73;74.47;;;10.30;99.90;;;;;;5184680;27;20523;-79
2024/03/04 11:00:25;;;;;;;84.10;75.00;;;10.40;99.90;;;;;;5166946;27;20812;-78
2024/03/04 11:03:03;;;;;;;81.43;72.50;;;10.40;99.90;;;;;;5166907;27;20489;-79
2024/03/04 11:05:34;;;;;;;83.50;74.40;;;10.50;99.90;;;;;;5167459;27;20508;-78
2024/03/04 11:08:05;;;;;;;81.27;72.33;;;10.50;99.90;;;;;;5167044;27;20468;-79
2024/03/04 11:10:37;;;;;;;88.70;78.17;;;10.50;99.90;;;;;;5167349;27;20470;-79
2024/03/04 11:13:19;;;;;;;82.80;73.20;;;10.60;99.90;;;;;;5166902;27;20472;-79
2024/03/04 11:15:51;;;;;;;82.73;70.13;;;10.60;99.90;;;;;;5166332;27;20433;-79
2024/03/04 11:18:31;;;;;;;77.07;68.80;;;10.60;99.90;;;;;;5166520;27;20492;-79
2024/03/04 11:21:02;;;;;;;76.53;68.20;;;10.70;99.90;;;;;;5185652;27;20811;-79
2024/03/04 11:23:30;;;;;;;82.30;72.10;;;10.70;99.90;;;;;;5166652;27;20435;-79
2024/03/04 11:26:00;;;;;;;81.17;71.00;;;10.70;99.90;;;;;;5166678;27;20518;-79
2024/03/04 11:28:31;;;;;;;79.90;71.57;;;10.80;99.90;;;;;;5166343;27;20480;-79
2024/03/04 11:31:00;;;;;;;85.30;73.20;;;10.80;99.90;;;;;;5166050;27;20462;-79
2024/03/04 11:33:40;;;;;;;86.40;73.43;;;10.80;99.90;;;;;;5166167;27;20464;-79
2024/03/04 11:36:10;;;;;;;83.27;72.07;;;10.80;99.90;;;;;;5165797;27;20535;-78
2024/03/04 11:38:44;;;;;;;86.90;77.40;;;10.80;99.90;;;;;;5166605;27;20454;-79
2024/03/04 11:41:13;;;;;;;80.90;68.87;;;10.80;99.90;;;;;;5165503;27;20483;-78
2024/03/04 11:43:44;;;;;;;79.97;70.80;;;10.80;99.90;;;;;;5164860;27;20445;-78
2024/03/04 11:46:14;;;;;;;80.03;69.20;;;10.80;99.90;;;;;;5165753;27;20515;-79
2024/03/04 11:48:46;;;;;;;81.47;71.30;;;10.80;99.90;;;;;;5163988;27;20463;-77
2024/03/04 11:51:15;;;;;;;85.53;72.20;;;10.80;99.90;;;;;;5163488;27;20449;-78
2024/03/04 11:53:45;;;;;;;88.17;72.37;;;10.80;99.90;;;;;;5164587;27;20468;-78
2024/03/04 11:56:14;;;;;;;91.23;76.83;;;10.80;99.90;;;;;;5184540;27;20433;-79
2024/03/04 11:58:44;;;;;;;89.23;72.40;;;10.80;99.90;;;;;;5166202;27;20461;-79
2024/03/04 12:01:13;;;;;;;83.77;74.50;;;10.80;99.90;;;;;;5165507;27;20476;-79
2024/03/04 12:03:54;;;;;;;94.67;76.90;;;10.90;99.90;;;;;;5165185;27;20444;-79
2024/03/04 12:06:23;;;;;;;90.00;73.17;;;10.90;99.90;;;;;;5165197;27;20914;-80
2024/03/04 12:08:52;;;;;;;91.87;75.57;;;10.90;99.90;;;;;;5164699;27;21048;-79
2024/03/04 12:11:41;;;;;;;88.57;72.50;;;10.90;99.90;;;;;;5165240;27;20429;-78
2024/03/04 12:14:12;;;;;;;91.63;77.00;;;10.90;99.90;;;;;;5185943;27;20457;-79
2024/03/04 12:16:41;;;;;;;88.53;74.50;;;10.90;99.90;;;;;;5183413;27;20465;-78
2024/03/04 12:19:09;;;;;;;86.10;70.47;;;10.90;99.90;;;;;;5164685;27;20465;-79
2024/03/04 12:21:38;;;;;;;87.30;71.63;;;10.90;99.90;;;;;;5164930;27;20440;-78
2024/03/04 12:24:08;;;;;;;88.70;72.97;;;11.00;99.90;;;;;;5164983;27;20444;-78
2024/03/04 12:26:36;;;;;;;79.70;67.00;;;11.00;99.90;;;;;;5164869;27;20808;-78
2024/03/04 12:29:06;;;;;;;83.27;69.40;;;11.10;99.90;;;;;;5164688;27;20572;-79
2024/03/04 12:31:37;;;;;;;76.60;63.50;;;11.10;99.90;;;;;;5162630;27;20437;-77
2024/03/04 12:34:07;;;;;;;77.87;66.20;;;11.10;99.90;;;;;;5164189;27;20532;-78
2024/03/04 12:36:43;;;;;;;73.83;65.63;;;11.20;99.90;;;;;;5164792;27;20523;-79
2024/03/04 12:39:15;;;;;;;83.10;66.93;;;11.20;99.90;;;;;;5164914;27;20478;-78
2024/03/04 12:41:45;;;;;;;75.20;63.80;;;11.20;99.90;;;;;;5165120;27;20851;-79
2024/03/04 12:44:18;;;;;;;76.03;63.13;;;11.30;99.90;;;;;;5160933;27;20448;-79